createdAt,value
2022-07-25T00:02:16.205Z,53.80
2022-07-25T00:04:46.541Z,53.80
2022-07-25T00:07:14.740Z,53.80
2022-07-25T00:09:42.872Z,53.80
2022-07-25T00:12:11.362Z,53.80
2022-07-25T00:14:39.553Z,53.80
2022-07-25T00:17:07.695Z,53.90
2022-07-25T00:19:35.813Z,53.80
2022-07-25T00:22:05.519Z,53.80
2022-07-25T00:24:34.120Z,53.80
2022-07-25T00:27:02.800Z,53.80
2022-07-25T00:29:31.162Z,53.80
2022-07-25T00:31:59.273Z,53.80
2022-07-25T00:34:27.441Z,53.80
2022-07-25T00:36:55.615Z,53.80
2022-07-25T00:39:25.122Z,53.80
2022-07-25T00:41:53.397Z,53.80
2022-07-25T00:44:27.066Z,53.80
2022-07-25T00:46:56.059Z,53.80
2022-07-25T00:49:24.855Z,53.80
2022-07-25T00:51:55.090Z,53.80
2022-07-25T00:54:24.848Z,53.80
2022-07-25T00:56:53.286Z,53.80
2022-07-25T00:59:21.436Z,53.80
2022-07-25T01:01:49.702Z,53.80
2022-07-25T01:04:18.732Z,53.80
2022-07-25T01:06:47.246Z,53.90
2022-07-25T01:09:15.632Z,53.80
2022-07-25T01:11:45.293Z,53.80
2022-07-25T01:14:13.432Z,53.80
2022-07-25T01:16:42.007Z,53.80
2022-07-25T01:19:10.560Z,53.80
2022-07-25T01:21:42.374Z,53.80
2022-07-25T01:24:11.449Z,53.70
2022-07-25T01:26:40.050Z,53.70
2022-07-25T01:29:08.262Z,53.70
2022-07-25T01:31:36.553Z,53.70
2022-07-25T01:34:05.187Z,53.70
2022-07-25T01:36:33.467Z,53.70
2022-07-25T01:39:03.080Z,53.70
2022-07-25T01:41:31.278Z,53.70
2022-07-25T01:43:59.488Z,53.80
2022-07-25T01:46:27.665Z,53.70
2022-07-25T01:48:55.983Z,53.70
2022-07-25T01:51:26.418Z,53.70
2022-07-25T01:53:54.862Z,53.70
2022-07-25T01:56:24.390Z,53.70
2022-07-25T01:58:52.550Z,53.80
2022-07-25T02:01:21.781Z,53.70
2022-07-25T02:03:50.799Z,53.70
2022-07-25T02:06:20.888Z,53.70
2022-07-25T02:08:49.116Z,53.70
2022-07-25T02:11:18.352Z,53.80
2022-07-25T02:13:47.933Z,53.80
2022-07-25T02:16:15.991Z,53.70
2022-07-25T02:18:44.308Z,53.70
2022-07-25T02:21:14.322Z,53.70
2022-07-25T02:23:43.575Z,53.60
2022-07-25T02:26:11.934Z,53.60
2022-07-25T02:28:40.625Z,53.70
2022-07-25T02:31:10.794Z,53.60
2022-07-25T02:33:39.168Z,53.70
2022-07-25T02:36:08.574Z,53.70
2022-07-25T02:38:36.796Z,53.70
2022-07-25T02:41:06.921Z,53.70
2022-07-25T02:43:35.108Z,53.70
2022-07-25T02:46:03.352Z,53.70
2022-07-25T02:48:33.062Z,53.80
2022-07-25T02:51:01.256Z,53.80
2022-07-25T02:53:55.551Z,53.80
2022-07-25T02:56:17.704Z,53.80
2022-07-25T02:58:49.422Z,53.80
2022-07-25T03:01:17.930Z,53.80
2022-07-25T03:03:47.570Z,53.80
2022-07-25T03:06:16.497Z,53.80
2022-07-25T03:08:44.951Z,53.80
2022-07-25T03:11:13.712Z,53.80
2022-07-25T03:13:42.007Z,53.70
2022-07-25T03:16:11.035Z,53.70
2022-07-25T03:18:39.284Z,53.60
2022-07-25T03:21:09.037Z,53.60
2022-07-25T03:23:37.216Z,53.60
2022-07-25T03:26:05.683Z,53.60
2022-07-25T03:28:33.838Z,53.50
2022-07-25T03:31:02.017Z,53.60
2022-07-25T03:33:30.161Z,53.60
2022-07-25T03:35:58.338Z,53.60
2022-07-25T03:38:28.026Z,53.60
2022-07-25T03:40:56.137Z,53.60
2022-07-25T03:43:24.292Z,53.60
2022-07-25T03:45:52.534Z,53.60
2022-07-25T03:48:20.689Z,53.60
2022-07-25T03:50:48.896Z,53.60
2022-07-25T03:53:17.054Z,53.60
2022-07-25T03:55:46.561Z,53.60
2022-07-25T03:58:14.741Z,53.60
2022-07-25T04:00:42.937Z,53.60
2022-07-25T04:03:12.100Z,53.60
2022-07-25T04:05:43.036Z,53.90
2022-07-25T04:08:15.286Z,53.70
2022-07-25T04:10:43.481Z,53.70
2022-07-25T04:13:13.040Z,53.60
2022-07-25T04:15:41.577Z,53.60
2022-07-25T04:18:10.121Z,53.60
2022-07-25T04:20:41.885Z,53.60
2022-07-25T04:23:10.344Z,53.60
2022-07-25T04:25:38.771Z,53.60
2022-07-25T04:28:06.952Z,53.60
2022-07-25T04:30:36.531Z,53.60
2022-07-25T04:33:04.861Z,53.60
2022-07-25T04:35:32.974Z,53.60
2022-07-25T04:38:01.296Z,53.60
2022-07-25T04:40:29.486Z,53.50
2022-07-25T04:42:57.639Z,53.60
2022-07-25T04:45:26.214Z,53.50
2022-07-25T04:47:55.747Z,53.60
2022-07-25T04:50:25.080Z,53.50
2022-07-25T04:52:53.407Z,53.50
2022-07-25T04:55:21.932Z,53.50
2022-07-25T04:57:50.153Z,53.50
2022-07-25T05:00:18.955Z,53.40
2022-07-25T05:02:47.209Z,53.40
2022-07-25T05:05:18.365Z,53.50
2022-07-25T05:07:50.675Z,53.40
2022-07-25T05:10:18.940Z,53.40
2022-07-25T05:12:47.061Z,53.40
2022-07-25T05:15:15.306Z,53.40
2022-07-25T05:17:43.766Z,53.40
2022-07-25T05:20:13.382Z,53.40
2022-07-25T05:22:43.556Z,53.40
2022-07-25T05:25:13.083Z,53.40
2022-07-25T05:27:41.672Z,53.40
2022-07-25T05:30:11.795Z,53.40
2022-07-25T05:32:40.258Z,53.40
2022-07-25T05:35:10.377Z,53.40
2022-07-25T05:37:39.480Z,53.40
2022-07-25T05:40:10.594Z,53.40
2022-07-25T05:42:38.814Z,53.40
2022-07-25T05:45:08.544Z,53.40
2022-07-25T05:47:37.123Z,53.30
2022-07-25T05:50:06.165Z,53.40
2022-07-25T05:52:34.325Z,53.40
2022-07-25T05:55:02.562Z,53.40
2022-07-25T05:57:32.161Z,53.40
2022-07-25T06:00:00.400Z,53.40
2022-07-25T06:02:28.838Z,53.40
2022-07-25T06:04:57.118Z,53.40
2022-07-25T06:07:25.302Z,53.40
2022-07-25T06:09:53.503Z,53.30
2022-07-25T06:12:21.657Z,53.30
2022-07-25T06:14:54.544Z,53.30
2022-07-25T06:17:22.755Z,53.30
2022-07-25T06:19:50.950Z,53.30
2022-07-25T06:22:19.636Z,53.40
2022-07-25T06:24:47.818Z,53.30
2022-07-25T06:27:20.550Z,53.30
2022-07-25T06:29:49.878Z,53.30
2022-07-25T06:32:19.527Z,53.30
2022-07-25T06:34:47.678Z,53.30
2022-07-25T06:37:16.063Z,53.30
2022-07-25T06:39:46.132Z,53.30
2022-07-25T06:42:14.612Z,53.30
2022-07-25T06:44:42.771Z,53.40
2022-07-25T06:47:12.886Z,53.30
2022-07-25T06:49:43.349Z,53.40
2022-07-25T06:52:11.985Z,53.30
2022-07-25T06:54:40.397Z,53.30
2022-07-25T06:57:08.968Z,53.70
2022-07-25T06:59:37.140Z,53.40
2022-07-25T07:02:05.323Z,53.40
2022-07-25T07:04:33.482Z,53.30
2022-07-25T07:07:02.943Z,53.20
2022-07-25T07:09:31.239Z,53.30
2022-07-25T07:11:59.717Z,53.20
2022-07-25T07:14:28.467Z,53.30
2022-07-25T07:16:56.783Z,53.30
2022-07-25T07:19:24.926Z,53.30
2022-07-25T07:21:53.100Z,53.30
2022-07-25T07:24:24.398Z,53.30
2022-07-25T07:26:53.663Z,53.20
2022-07-25T07:29:22.417Z,53.20
2022-07-25T07:31:50.848Z,53.20
2022-07-25T07:34:19.256Z,53.20
2022-07-25T07:36:47.562Z,53.20
2022-07-25T07:39:16.521Z,53.20
2022-07-25T07:41:46.384Z,53.80
2022-07-25T07:44:14.548Z,53.30
2022-07-25T07:46:42.781Z,53.30
2022-07-25T07:49:11.596Z,53.30
2022-07-25T07:51:40.191Z,53.30
2022-07-25T07:54:25.899Z,53.30
2022-07-25T07:56:55.401Z,53.30
2022-07-25T07:59:23.544Z,53.30
2022-07-25T08:01:51.769Z,53.30
2022-07-25T08:04:20.105Z,53.30
2022-07-25T08:06:48.333Z,53.30
2022-07-25T08:09:16.457Z,53.20
2022-07-25T08:11:44.628Z,53.20
2022-07-25T08:14:14.111Z,53.30
2022-07-25T08:16:42.282Z,53.30
2022-07-25T08:19:10.569Z,53.30
2022-07-25T08:21:39.580Z,53.30
2022-07-25T08:24:08.545Z,53.30
2022-07-25T08:26:37.466Z,53.40
2022-07-25T08:29:18.755Z,53.40
2022-07-25T08:31:49.621Z,53.40
2022-07-25T08:34:19.504Z,53.40
2022-07-25T08:36:47.818Z,53.40
2022-07-25T08:39:16.013Z,53.40
2022-07-25T08:41:44.604Z,53.50
2022-07-25T08:44:14.788Z,53.40
2022-07-25T08:46:43.601Z,53.40
2022-07-25T08:49:13.481Z,53.40
2022-07-25T08:51:42.033Z,53.40
2022-07-25T08:54:11.527Z,53.40
2022-07-25T08:56:39.854Z,53.30
2022-07-25T08:59:09.790Z,53.30
2022-07-25T09:01:40.690Z,53.30
2022-07-25T09:04:10.884Z,53.30
2022-07-25T09:06:51.451Z,53.20
2022-07-25T09:09:20.229Z,53.30
2022-07-25T09:11:49.921Z,53.20
2022-07-25T09:14:17.990Z,53.20
2022-07-25T09:16:47.977Z,53.20
2022-07-25T09:19:18.091Z,53.30
2022-07-25T09:22:01.436Z,53.30
2022-07-25T09:24:30.071Z,53.30
2022-07-25T09:27:01.638Z,53.20
2022-07-25T09:29:33.059Z,53.30
2022-07-25T09:32:03.699Z,53.30
2022-07-25T09:34:34.946Z,53.20
2022-07-25T09:37:06.196Z,53.30
2022-07-25T09:39:37.903Z,53.30
2022-07-25T09:42:23.969Z,53.30
2022-07-25T09:45:12.649Z,53.30
2022-07-25T09:47:53.062Z,53.30
2022-07-25T09:50:22.557Z,53.20
2022-07-25T09:52:55.113Z,53.30
2022-07-25T09:55:24.873Z,53.20
2022-07-25T09:57:53.614Z,53.20
2022-07-25T10:00:24.307Z,53.30
2022-07-25T10:03:30.352Z,53.20
2022-07-25T10:06:11.897Z,53.30
2022-07-25T10:08:42.586Z,53.30
2022-07-25T10:11:21.444Z,53.30
2022-07-25T10:13:50.203Z,53.30
2022-07-25T10:16:21.324Z,53.30
2022-07-25T10:18:52.079Z,53.30
2022-07-25T10:21:29.007Z,53.30
2022-07-25T10:24:05.075Z,53.30
2022-07-25T10:26:35.734Z,53.30
2022-07-25T10:29:10.200Z,53.30
2022-07-25T10:31:47.658Z,53.90
2022-07-25T10:34:28.851Z,53.30
2022-07-25T10:36:57.354Z,53.30
2022-07-25T10:39:26.941Z,53.30
2022-07-25T10:42:00.298Z,53.30
2022-07-25T10:44:40.193Z,53.30
2022-07-25T10:47:11.334Z,53.30
2022-07-25T10:50:00.167Z,53.30
2022-07-25T10:52:31.721Z,53.30
2022-07-25T10:55:02.311Z,53.20
2022-07-25T10:57:32.169Z,53.20
2022-07-25T11:00:07.906Z,53.20
2022-07-25T11:02:36.387Z,53.20
2022-07-25T11:05:06.777Z,53.20
2022-07-25T11:07:36.892Z,53.20
2022-07-25T11:10:07.642Z,53.20
2022-07-25T11:12:35.852Z,53.30
2022-07-25T11:15:07.451Z,53.20
2022-07-25T11:17:36.315Z,53.20
2022-07-25T11:20:08.320Z,53.20
2022-07-25T11:22:37.019Z,53.20
2022-07-25T11:25:13.925Z,53.20
2022-07-25T11:27:42.213Z,53.20
2022-07-25T11:30:12.202Z,53.20
2022-07-25T11:32:41.447Z,53.20
2022-07-25T11:35:13.091Z,53.20
2022-07-25T11:37:43.618Z,53.20
2022-07-25T11:40:16.340Z,53.30
2022-07-25T11:42:47.495Z,53.20
2022-07-25T11:45:21.458Z,53.20
2022-07-25T11:47:51.519Z,53.30
2022-07-25T11:50:30.007Z,53.20
2022-07-25T11:53:01.382Z,53.30
2022-07-25T11:55:33.913Z,53.20
2022-07-25T11:58:04.473Z,53.30
2022-07-25T12:00:37.170Z,53.20
2022-07-25T12:03:13.060Z,53.20
2022-07-25T12:05:46.097Z,53.20
2022-07-25T12:08:16.041Z,53.20
2022-07-25T12:10:48.292Z,53.30
2022-07-25T12:13:24.419Z,53.20
2022-07-25T12:15:52.773Z,53.30
2022-07-25T12:18:20.992Z,53.30
2022-07-25T12:20:49.297Z,53.30
2022-07-25T12:23:17.582Z,53.30
2022-07-25T12:25:48.615Z,53.20
2022-07-25T12:28:16.913Z,53.30
2022-07-25T12:30:47.086Z,53.30
2022-07-25T12:33:17.236Z,53.20
2022-07-25T12:35:46.164Z,53.20
2022-07-25T12:38:14.684Z,53.30
2022-07-25T12:40:42.935Z,53.40
2022-07-25T12:43:12.604Z,53.40
2022-07-25T12:45:42.567Z,53.40
2022-07-25T12:48:11.053Z,53.40
2022-07-25T12:50:39.283Z,53.30
2022-07-25T12:53:07.536Z,53.30
2022-07-25T12:55:35.917Z,53.30
2022-07-25T12:58:04.408Z,53.30
2022-07-25T13:00:34.185Z,53.30
2022-07-25T13:03:02.395Z,53.30
2022-07-25T13:05:30.909Z,53.30
2022-07-25T13:07:59.028Z,53.30
2022-07-25T13:10:27.244Z,53.40
2022-07-25T13:12:56.253Z,53.30
2022-07-25T13:15:28.124Z,53.40
2022-07-25T13:17:58.074Z,53.40
2022-07-25T13:20:26.363Z,53.40
2022-07-25T13:22:54.499Z,53.40
2022-07-25T13:25:22.748Z,53.40
2022-07-25T13:27:50.989Z,53.40
2022-07-25T13:30:19.304Z,53.40
2022-07-25T13:32:47.476Z,53.50
2022-07-25T13:35:20.491Z,53.40
2022-07-25T13:37:49.364Z,53.50
2022-07-25T13:40:17.787Z,53.50
2022-07-25T13:42:45.970Z,53.40
2022-07-25T13:45:14.150Z,53.40
2022-07-25T13:47:42.519Z,53.40
2022-07-25T13:50:11.504Z,53.40
2022-07-25T13:52:41.072Z,53.40
2022-07-25T13:55:10.590Z,53.40
2022-07-25T13:57:38.731Z,53.40
2022-07-25T14:00:09.087Z,53.50
2022-07-25T14:02:37.419Z,53.50
2022-07-25T14:05:06.466Z,53.50
2022-07-25T14:07:36.060Z,53.50
2022-07-25T14:10:08.477Z,53.40
2022-07-25T14:12:37.336Z,53.40
2022-07-25T14:15:08.206Z,53.40
2022-07-25T14:17:36.844Z,53.50
2022-07-25T14:20:06.038Z,53.40
2022-07-25T14:22:34.416Z,53.40
2022-07-25T14:25:02.671Z,53.40
2022-07-25T14:27:32.307Z,53.50
2022-07-25T14:30:00.577Z,53.50
2022-07-25T14:32:28.939Z,53.50
2022-07-25T14:34:57.094Z,53.60
2022-07-25T14:37:25.911Z,53.60
2022-07-25T14:39:54.144Z,53.60
2022-07-25T14:42:22.377Z,53.50
2022-07-25T14:44:51.887Z,53.50
2022-07-25T14:47:20.454Z,53.50
2022-07-25T14:49:49.506Z,53.50
2022-07-25T14:52:18.638Z,53.50
2022-07-25T14:54:46.997Z,53.50
2022-07-25T14:57:15.237Z,53.50
2022-07-25T14:59:43.397Z,53.50
2022-07-25T15:02:12.882Z,53.50
2022-07-25T15:04:41.163Z,53.50
2022-07-25T15:07:09.398Z,53.50
2022-07-25T15:09:37.747Z,53.50
2022-07-25T15:12:06.420Z,53.50
2022-07-25T15:14:35.761Z,53.50
2022-07-25T15:17:03.964Z,53.50
2022-07-25T15:19:33.946Z,53.60
2022-07-25T15:22:02.150Z,53.60
2022-07-25T15:24:36.295Z,53.60
2022-07-25T15:27:12.525Z,53.60
2022-07-25T15:29:40.885Z,53.50
2022-07-25T15:32:09.418Z,53.60
2022-07-25T15:34:39.290Z,53.60
2022-07-25T15:37:07.540Z,53.60
2022-07-25T15:39:35.804Z,53.50
2022-07-25T15:42:03.996Z,53.50
2022-07-25T15:44:32.744Z,53.50
2022-07-25T15:47:00.971Z,53.50
2022-07-25T15:49:29.323Z,53.50
2022-07-25T15:51:58.855Z,53.50
2022-07-25T15:54:29.551Z,53.50
2022-07-25T15:56:57.938Z,53.60
2022-07-25T15:59:26.155Z,53.60
2022-07-25T16:01:54.342Z,53.60
2022-07-25T16:04:22.580Z,53.50
2022-07-25T16:06:50.874Z,53.60
2022-07-25T16:09:21.033Z,53.60
2022-07-25T16:11:49.176Z,53.50
2022-07-25T16:14:17.429Z,53.50
2022-07-25T16:16:45.696Z,53.50
2022-07-25T16:19:13.923Z,53.50
2022-07-25T16:21:42.152Z,53.60
2022-07-25T16:24:11.050Z,53.70
2022-07-25T16:26:40.568Z,53.70
2022-07-25T16:29:08.976Z,53.70
2022-07-25T16:31:37.392Z,53.70
2022-07-25T16:34:05.994Z,53.60
2022-07-25T16:36:34.166Z,53.60
2022-07-25T16:39:02.891Z,53.60
2022-07-25T16:41:31.169Z,53.60
2022-07-25T16:44:00.994Z,53.60
2022-07-25T16:46:29.427Z,53.60
2022-07-25T16:48:57.888Z,53.60
2022-07-25T16:51:26.220Z,53.50
2022-07-25T16:53:54.415Z,53.50
2022-07-25T16:56:23.080Z,53.60
2022-07-25T16:58:51.228Z,53.60
2022-07-25T17:01:21.079Z,53.60
2022-07-25T17:03:49.346Z,53.60
2022-07-25T17:06:17.624Z,53.60
2022-07-25T17:08:46.667Z,53.60
2022-07-25T17:11:15.210Z,53.60
2022-07-25T17:13:43.387Z,53.60
2022-07-25T17:16:11.869Z,53.60
2022-07-25T17:18:41.457Z,53.60
2022-07-25T17:21:10.612Z,53.60
2022-07-25T17:23:38.909Z,53.70
2022-07-25T17:26:07.438Z,53.70
2022-07-25T17:28:36.543Z,53.70
2022-07-25T17:31:04.750Z,53.60
2022-07-25T17:33:33.101Z,53.60
2022-07-25T17:36:02.729Z,53.60
2022-07-25T17:38:34.855Z,53.60
2022-07-25T17:41:03.558Z,53.60
2022-07-25T17:43:31.855Z,53.60
2022-07-25T17:46:00.114Z,53.70
2022-07-25T17:48:28.462Z,53.60
2022-07-25T17:50:56.718Z,53.60
2022-07-25T17:53:26.281Z,53.60
2022-07-25T17:55:54.520Z,53.60
2022-07-25T17:58:22.728Z,53.60
2022-07-25T18:00:50.981Z,53.60
2022-07-25T18:03:19.729Z,53.60
2022-07-25T18:05:48.026Z,53.60
2022-07-25T18:08:16.279Z,53.60
2022-07-25T18:10:45.955Z,53.60
2022-07-25T18:13:14.715Z,53.70
2022-07-25T18:15:43.555Z,54.30
2022-07-25T18:18:15.684Z,53.70
2022-07-25T18:20:48.133Z,53.70
2022-07-25T18:23:16.320Z,53.70
2022-07-25T18:25:46.964Z,53.70
2022-07-25T18:28:15.139Z,53.70
2022-07-25T18:30:43.532Z,53.70
2022-07-25T18:33:12.235Z,53.70
2022-07-25T18:35:40.403Z,53.70
2022-07-25T18:38:09.434Z,53.70
2022-07-25T18:40:37.627Z,53.70
2022-07-25T18:43:08.997Z,53.70
2022-07-25T18:45:38.721Z,53.70
2022-07-25T18:48:08.728Z,53.70
2022-07-25T18:50:37.010Z,53.70
2022-07-25T18:53:05.181Z,53.70
2022-07-25T18:55:33.485Z,53.70
2022-07-25T18:58:01.844Z,53.70
2022-07-25T19:00:31.351Z,54.30
2022-07-25T19:02:59.558Z,53.70
2022-07-25T19:05:28.137Z,53.70
2022-07-25T19:07:59.609Z,53.70
2022-07-25T19:10:27.743Z,53.70
2022-07-25T19:12:56.027Z,53.70
2022-07-25T19:15:24.416Z,53.70
2022-07-25T19:17:54.000Z,53.70
2022-07-25T19:20:22.744Z,53.70
2022-07-25T19:22:51.115Z,53.70
2022-07-25T19:25:19.508Z,53.70
2022-07-25T19:27:47.897Z,53.70
2022-07-25T19:30:18.308Z,53.70
2022-07-25T19:32:46.913Z,53.60
2022-07-25T19:35:24.060Z,53.70
2022-07-25T19:37:54.192Z,53.70
2022-07-25T19:40:22.666Z,53.70
2022-07-25T19:42:50.868Z,53.70
2022-07-25T19:45:19.124Z,53.70
2022-07-25T19:47:47.295Z,53.70
2022-07-25T19:50:17.032Z,53.70
2022-07-25T19:52:45.262Z,53.70
2022-07-25T19:55:13.493Z,53.70
2022-07-25T19:57:42.517Z,53.70
2022-07-25T20:00:12.121Z,53.80
2022-07-25T20:02:41.216Z,53.70
2022-07-25T20:05:11.755Z,53.70
2022-07-25T20:07:41.294Z,53.80
2022-07-25T20:10:11.184Z,53.80
2022-07-25T20:12:40.311Z,53.80
2022-07-25T20:15:09.204Z,53.70
2022-07-25T20:17:37.404Z,53.70
2022-07-25T20:20:07.897Z,53.70
2022-07-25T20:22:37.631Z,53.70
2022-07-25T20:25:10.257Z,53.70
2022-07-25T20:27:38.960Z,53.70
2022-07-25T20:30:09.719Z,53.70
2022-07-25T20:32:38.327Z,53.70
2022-07-25T20:35:08.316Z,53.70
2022-07-25T20:37:36.631Z,53.70
2022-07-25T20:40:08.818Z,53.70
2022-07-25T20:42:37.938Z,53.70
2022-07-25T20:45:07.720Z,53.70
2022-07-25T20:47:35.960Z,53.70
2022-07-25T20:50:04.343Z,53.70
2022-07-25T20:52:33.309Z,53.70
2022-07-25T20:55:01.437Z,53.70
2022-07-25T20:57:36.716Z,53.80
2022-07-25T21:00:06.321Z,53.80
2022-07-25T21:02:34.927Z,53.80
2022-07-25T21:05:03.602Z,53.80
2022-07-25T21:07:31.816Z,53.80
2022-07-25T21:10:00.242Z,53.90
2022-07-25T21:12:32.409Z,53.80
2022-07-25T21:15:02.513Z,53.90
2022-07-25T21:17:30.693Z,53.80
2022-07-25T21:19:58.896Z,53.80
2022-07-25T21:22:27.475Z,53.80
2022-07-25T21:24:55.604Z,53.80
2022-07-25T21:27:24.435Z,53.90
2022-07-25T21:29:52.625Z,53.80
2022-07-25T21:32:23.234Z,53.80
2022-07-25T21:34:51.823Z,53.80
2022-07-25T21:37:20.174Z,53.80
2022-07-25T21:39:48.300Z,53.80
2022-07-25T21:42:16.541Z,53.80
2022-07-25T21:44:45.722Z,53.80
2022-07-25T21:47:14.524Z,53.80
2022-07-25T21:50:01.852Z,53.80
2022-07-25T21:52:34.832Z,53.80
2022-07-25T21:55:04.952Z,53.80
2022-07-25T21:57:33.509Z,53.80
2022-07-25T22:00:01.725Z,53.80
2022-07-25T22:02:29.848Z,53.90
2022-07-25T22:04:59.395Z,53.80
2022-07-25T22:07:28.446Z,53.80
2022-07-25T22:09:56.640Z,53.80
2022-07-25T22:12:24.881Z,53.80
2022-07-25T22:14:52.965Z,53.80
2022-07-25T22:17:21.111Z,53.80
2022-07-25T22:19:49.393Z,53.80
2022-07-25T22:22:18.980Z,53.80
2022-07-25T22:24:47.141Z,53.80
2022-07-25T22:27:15.329Z,53.80
2022-07-25T22:29:43.475Z,53.80
2022-07-25T22:32:11.779Z,53.80
2022-07-25T22:34:40.025Z,53.80
2022-07-25T22:37:08.192Z,53.80
2022-07-25T22:39:37.732Z,53.90
2022-07-25T22:42:06.457Z,53.90
2022-07-25T22:44:34.634Z,53.80
2022-07-25T22:47:02.800Z,53.80
2022-07-25T22:49:31.035Z,53.80
2022-07-25T22:51:59.217Z,53.80
2022-07-25T22:54:27.358Z,53.80
2022-07-25T22:56:56.900Z,53.80
2022-07-25T22:59:25.059Z,53.80
2022-07-25T23:01:53.348Z,53.80
2022-07-25T23:04:21.625Z,53.80
2022-07-25T23:06:49.812Z,53.80
2022-07-25T23:09:18.124Z,53.80
2022-07-25T23:11:46.256Z,54.40
2022-07-25T23:14:15.786Z,53.80
2022-07-25T23:16:44.027Z,53.90
2022-07-25T23:19:12.304Z,53.90
2022-07-25T23:21:40.584Z,53.90
2022-07-25T23:24:08.840Z,53.80
2022-07-25T23:26:37.014Z,53.90
2022-07-25T23:29:05.457Z,53.90
2022-07-25T23:31:35.433Z,53.90
2022-07-25T23:34:04.718Z,53.90
2022-07-25T23:36:32.947Z,53.90
2022-07-25T23:39:01.163Z,54.50
2022-07-25T23:41:29.436Z,53.90
2022-07-25T23:43:59.903Z,53.90
2022-07-25T23:46:29.576Z,53.90
2022-07-25T23:49:01.372Z,53.90
2022-07-25T23:51:29.596Z,53.90
2022-07-25T23:53:57.799Z,53.90
2022-07-25T23:56:26.201Z,53.90
2022-07-25T23:58:54.432Z,53.90
